createdAt,value
2019-02-06T00:00:58.549Z,102481.83
2019-02-06T00:04:07.347Z,102477.20
2019-02-06T00:07:16.381Z,102476.27
2019-02-06T00:10:25.033Z,102474.13
2019-02-06T00:13:34.566Z,102477.98
2019-02-06T00:16:53.862Z,102477.66
2019-02-06T00:20:02.615Z,102478.84
2019-02-06T00:23:11.429Z,102469.89
2019-02-06T00:26:20.032Z,102474.30
2019-02-06T00:29:28.870Z,102475.75
2019-02-06T00:32:38.352Z,102466.82
2019-02-06T00:35:57.185Z,102461.84
2019-02-06T00:39:16.524Z,102462.80
2019-02-06T00:42:25.123Z,102464.09
2019-02-06T00:45:44.656Z,102465.09
2019-02-06T00:48:53.465Z,102463.77
2019-02-06T00:52:02.062Z,102455.23
2019-02-06T00:55:12.392Z,102463.05
2019-02-06T00:58:20.974Z,102462.77
2019-02-06T01:01:29.546Z,102462.38
2019-02-06T01:04:38.042Z,102459.37
2019-02-06T01:07:56.915Z,102456.46
2019-02-06T01:11:05.489Z,102450.80
2019-02-06T01:14:14.094Z,102456.41
2019-02-06T01:17:25.777Z,102456.53
2019-02-06T01:20:33.090Z,102465.57
2019-02-06T01:23:41.720Z,102453.16
2019-02-06T01:26:50.332Z,102466.05
2019-02-06T01:29:58.970Z,102455.73
2019-02-06T01:33:18.214Z,102449.44
2019-02-06T01:36:26.890Z,102446.41
2019-02-06T01:39:35.520Z,102441.72
2019-02-06T01:42:44.097Z,102445.64
2019-02-06T01:45:52.732Z,102440.92
2019-02-06T01:49:01.329Z,102457.66
2019-02-06T01:52:09.928Z,102454.23
2019-02-06T01:55:28.787Z,102449.99
2019-02-06T01:58:37.281Z,102450.39
2019-02-06T02:01:45.905Z,102432.77
2019-02-06T02:04:54.673Z,102429.38
2019-02-06T02:08:03.323Z,102442.65
2019-02-06T02:11:11.886Z,102449.60
2019-02-06T02:14:20.456Z,102434.15
2019-02-06T02:17:29.338Z,102423.85
2019-02-06T02:20:48.171Z,102419.13
2019-02-06T02:23:56.765Z,102414.00
2019-02-06T02:27:05.394Z,102403.67
2019-02-06T02:30:22.786Z,102399.34
2019-02-06T02:33:45.480Z,102399.05
2019-02-06T02:36:54.365Z,102401.16
2019-02-06T02:40:02.934Z,102402.83
2019-02-06T02:43:11.490Z,102398.16
2019-02-06T02:46:20.114Z,102393.41
2019-02-06T02:49:28.717Z,102376.22
2019-02-06T02:52:37.414Z,102361.65
2019-02-06T02:55:46.146Z,102374.09
2019-02-06T02:58:54.693Z,102371.98
2019-02-06T03:02:47.857Z,102354.39
2019-02-06T03:05:56.778Z,102358.18
2019-02-06T03:09:12.225Z,102358.60
2019-02-06T03:12:20.761Z,102365.52
2019-02-06T03:15:29.466Z,102362.06
2019-02-06T03:18:48.153Z,102342.33
2019-02-06T03:21:56.757Z,102329.05
2019-02-06T03:25:06.461Z,102326.48
2019-02-06T03:28:25.105Z,102323.48
2019-02-06T03:31:33.698Z,102319.58
2019-02-06T03:34:42.199Z,102316.97
2019-02-06T03:37:51.303Z,102311.02
2019-02-06T03:40:59.920Z,102311.87
2019-02-06T03:44:08.600Z,102309.11
2019-02-06T03:47:17.172Z,102305.17
2019-02-06T03:50:25.850Z,102305.69
2019-02-06T03:53:36.001Z,102303.97
2019-02-06T03:56:54.964Z,102293.76
2019-02-06T04:00:03.487Z,102292.87
2019-02-06T04:03:12.442Z,102285.15
2019-02-06T04:06:21.236Z,102285.17
2019-02-06T04:09:29.811Z,102278.70
2019-02-06T04:12:38.488Z,102264.88
2019-02-06T04:15:47.173Z,102269.63
2019-02-06T04:18:54.272Z,102266.21
2019-02-06T04:22:02.916Z,102259.27
2019-02-06T04:25:12.018Z,102247.30
2019-02-06T04:28:20.519Z,102244.31
2019-02-06T04:31:29.137Z,102241.17
2019-02-06T04:34:40.201Z,102231.86
2019-02-06T04:37:48.896Z,102219.87
2019-02-06T04:40:57.415Z,102212.59
2019-02-06T04:44:06.215Z,102196.25
2019-02-06T04:47:14.828Z,102203.14
2019-02-06T04:50:23.582Z,102216.00
2019-02-06T04:53:32.173Z,102210.43
2019-02-06T04:56:51.086Z,102203.97
2019-02-06T04:59:59.604Z,102199.23
2019-02-06T05:03:08.153Z,102188.47
2019-02-06T05:06:16.842Z,102166.62
2019-02-06T05:09:25.332Z,102161.92
2019-02-06T05:12:33.984Z,102159.36
2019-02-06T05:15:43.022Z,102159.34
2019-02-06T05:18:51.559Z,102164.08
2019-02-06T05:22:10.409Z,102152.02
2019-02-06T05:25:18.891Z,102160.13
2019-02-06T05:28:27.770Z,102161.03
2019-02-06T05:31:36.271Z,102158.84
2019-02-06T05:34:44.870Z,102153.22
2019-02-06T05:37:53.497Z,102155.44
2019-02-06T05:41:02.449Z,102155.83
2019-02-06T05:44:10.949Z,102156.28
2019-02-06T05:47:29.854Z,102152.02
2019-02-06T05:50:38.444Z,102142.98
2019-02-06T05:53:47.417Z,102136.95
2019-02-06T05:56:56.111Z,102130.95
2019-02-06T06:00:06.224Z,102130.08
2019-02-06T06:03:14.729Z,102136.06
2019-02-06T06:06:23.469Z,102130.52
2019-02-06T06:09:32.065Z,102128.81
2019-02-06T06:12:40.776Z,102140.78
2019-02-06T06:15:49.491Z,102134.76
2019-02-06T06:19:08.313Z,102130.12
2019-02-06T06:22:16.902Z,102121.58
2019-02-06T06:25:25.746Z,102130.20
2019-02-06T06:28:34.341Z,102120.31
2019-02-06T06:31:42.839Z,102126.31
2019-02-06T06:34:52.890Z,102124.48
2019-02-06T06:38:03.039Z,102120.66
2019-02-06T06:41:22.215Z,102107.84
2019-02-06T06:44:30.938Z,102110.84
2019-02-06T06:47:39.578Z,102108.72
2019-02-06T06:50:48.200Z,102105.31
2019-02-06T06:53:56.810Z,102102.73
2019-02-06T06:57:06.472Z,102099.67
2019-02-06T07:00:28.561Z,102087.71
2019-02-06T07:03:37.036Z,102090.74
2019-02-06T07:06:46.512Z,102092.05
2019-02-06T07:10:07.000Z,102090.33
2019-02-06T07:13:15.536Z,102088.63
2019-02-06T07:16:24.231Z,102081.30
2019-02-06T07:19:32.740Z,102085.65
2019-02-06T07:22:41.331Z,102085.60
2019-02-06T07:26:00.277Z,102088.23
2019-02-06T07:29:08.858Z,102080.51
2019-02-06T07:32:17.442Z,102079.22
2019-02-06T07:35:26.169Z,102080.09
2019-02-06T07:38:34.779Z,102071.09
2019-02-06T07:41:43.380Z,102069.83
2019-02-06T07:44:52.032Z,102068.94
2019-02-06T07:48:00.679Z,102061.24
2019-02-06T07:51:19.564Z,102053.13
2019-02-06T07:54:28.137Z,102050.55
2019-02-06T07:57:36.821Z,102039.81
2019-02-06T08:00:45.429Z,102040.67
2019-02-06T08:03:54.000Z,102040.68
2019-02-06T08:07:02.901Z,102031.27
2019-02-06T08:10:19.046Z,102019.26
2019-02-06T08:13:38.153Z,102029.98
2019-02-06T08:16:46.821Z,102027.83
2019-02-06T08:19:55.491Z,102026.13
2019-02-06T08:23:02.507Z,102027.84
2019-02-06T08:26:11.149Z,102029.12
2019-02-06T08:29:19.799Z,102031.27
2019-02-06T08:32:28.405Z,102023.53
2019-02-06T08:35:37.204Z,102020.11
2019-02-06T08:38:47.637Z,102013.23
2019-02-06T08:42:06.237Z,102005.52
2019-02-06T08:45:16.636Z,102005.52
2019-02-06T08:48:25.299Z,102006.39
2019-02-06T08:51:33.414Z,102009.80
2019-02-06T08:54:41.997Z,102017.94
2019-02-06T08:58:01.267Z,102019.69
2019-02-06T09:01:20.145Z,102012.81
2019-02-06T09:04:28.793Z,102010.67
2019-02-06T09:07:37.497Z,101995.22
2019-02-06T09:10:46.452Z,101989.63
2019-02-06T09:13:54.949Z,102011.50
2019-02-06T09:17:03.611Z,101996.06
2019-02-06T09:20:16.670Z,101995.19
2019-02-06T09:23:25.726Z,101984.48
2019-02-06T09:26:36.283Z,101970.28
2019-02-06T09:29:54.700Z,101986.12
2019-02-06T09:33:03.639Z,101977.97
2019-02-06T09:36:12.229Z,101983.11
2019-02-06T09:39:21.776Z,101975.82
2019-02-06T09:42:30.396Z,101968.52
2019-02-06T09:45:49.377Z,101953.13
2019-02-06T09:48:57.977Z,101962.52
2019-02-06T09:52:06.575Z,101953.92
2019-02-06T09:55:15.471Z,101958.64
2019-02-06T09:58:23.983Z,101960.69
2019-02-06T10:01:32.491Z,101961.51
2019-02-06T10:04:40.980Z,101959.37
2019-02-06T10:08:00.059Z,101957.52
2019-02-06T10:11:08.653Z,101959.16
2019-02-06T10:14:17.252Z,101956.06
2019-02-06T10:17:25.946Z,101957.33
2019-02-06T10:20:50.375Z,101952.41
2019-02-06T10:23:58.990Z,101949.77
2019-02-06T10:27:08.868Z,101948.03
2019-02-06T10:30:26.718Z,101943.14
2019-02-06T10:33:35.463Z,101942.26
2019-02-06T10:36:44.185Z,101944.77
2019-02-06T10:39:52.883Z,101931.01
2019-02-06T10:43:01.724Z,101928.76
2019-02-06T10:46:10.643Z,101917.45
2019-02-06T10:49:19.329Z,101919.91
2019-02-06T10:52:29.261Z,101919.02
2019-02-06T10:55:38.398Z,101921.92
2019-02-06T10:58:46.957Z,101915.02
2019-02-06T11:01:55.556Z,101906.85
2019-02-06T11:05:14.989Z,101901.51
2019-02-06T11:08:33.694Z,101899.90
2019-02-06T11:11:42.186Z,101895.18
2019-02-06T11:14:50.781Z,101905.47
2019-02-06T11:17:59.451Z,101906.95
2019-02-06T11:21:08.138Z,101909.58
2019-02-06T11:24:17.206Z,101910.95
2019-02-06T11:27:25.768Z,101912.69
2019-02-06T11:30:34.844Z,101907.92
2019-02-06T11:33:43.398Z,101902.31
2019-02-06T11:36:51.981Z,101909.53
2019-02-06T11:40:00.552Z,101912.96
2019-02-06T11:43:19.473Z,101892.11
2019-02-06T11:46:28.116Z,101893.08
2019-02-06T11:49:40.348Z,101897.84
2019-02-06T11:52:49.531Z,101895.22
2019-02-06T11:56:08.535Z,101894.81
2019-02-06T11:59:17.023Z,101892.59
2019-02-06T12:02:36.668Z,101884.01
2019-02-06T12:05:47.124Z,101881.78
2019-02-06T12:08:55.730Z,101879.72
2019-02-06T12:12:04.328Z,101883.64
2019-02-06T12:15:17.086Z,101875.98
2019-02-06T12:18:25.876Z,101869.23
2019-02-06T12:21:44.714Z,101867.06
2019-02-06T12:24:53.320Z,101859.88
2019-02-06T12:28:04.957Z,101861.56
2019-02-06T12:31:12.275Z,101854.71
2019-02-06T12:34:20.770Z,101854.75
2019-02-06T12:37:29.384Z,101847.94
2019-02-06T12:40:38.090Z,101853.91
2019-02-06T12:43:47.128Z,101846.23
2019-02-06T12:46:55.733Z,101844.87
2019-02-06T12:50:15.220Z,101837.13
2019-02-06T12:53:33.971Z,101831.12
2019-02-06T12:56:42.633Z,101838.13
2019-02-06T12:59:51.443Z,101836.42
2019-02-06T13:03:00.501Z,101830.42
2019-02-06T13:06:19.678Z,101831.64
2019-02-06T13:09:30.117Z,101837.75
2019-02-06T13:12:38.761Z,101837.82
2019-02-06T13:15:47.616Z,101825.33
2019-02-06T13:18:56.233Z,101821.05
2019-02-06T13:22:04.771Z,101814.53
2019-02-06T13:25:14.887Z,101812.84
2019-02-06T13:28:23.480Z,101809.82
2019-02-06T13:31:32.053Z,101793.49
2019-02-06T13:34:41.005Z,101795.23
2019-02-06T13:37:59.949Z,101793.49
2019-02-06T13:41:08.653Z,101799.09
2019-02-06T13:44:17.303Z,101800.83
2019-02-06T13:47:25.984Z,101797.33
2019-02-06T13:50:35.222Z,101800.34
2019-02-06T13:53:43.819Z,101795.59
2019-02-06T13:56:52.582Z,101793.05
2019-02-06T14:00:02.162Z,101793.45
2019-02-06T14:03:11.030Z,101802.37
2019-02-06T14:06:19.806Z,101787.38
2019-02-06T14:09:28.300Z,101783.91
2019-02-06T14:12:37.174Z,101781.77
2019-02-06T14:15:56.043Z,101780.34
2019-02-06T14:19:05.735Z,101781.20
2019-02-06T14:22:14.294Z,101776.03
2019-02-06T14:26:05.280Z,101769.17
2019-02-06T14:30:06.947Z,101769.13
2019-02-06T14:34:26.864Z,101770.88
2019-02-06T14:38:27.462Z,101778.70
2019-02-06T14:42:21.021Z,101755.34
2019-02-06T14:47:01.322Z,101759.13
2019-02-06T14:50:54.901Z,101752.23
2019-02-06T14:54:45.723Z,101754.86
2019-02-06T14:58:55.622Z,101743.15
2019-02-06T15:03:22.742Z,101742.65
2019-02-06T15:07:01.601Z,101739.27
2019-02-06T15:11:34.549Z,101732.47
2019-02-06T15:15:26.939Z,101734.12
2019-02-06T15:19:15.998Z,101735.36
2019-02-06T15:23:33.642Z,101737.14
2019-02-06T15:27:53.949Z,101733.31
2019-02-06T15:31:49.702Z,101733.62
2019-02-06T15:36:02.613Z,101728.36
2019-02-06T15:40:27.976Z,101728.70
2019-02-06T15:44:34.493Z,101727.02
2019-02-06T15:48:17.945Z,101731.09
2019-02-06T15:52:31.496Z,101729.44
2019-02-06T15:56:22.226Z,101728.60
2019-02-06T16:00:14.694Z,101729.05
2019-02-06T16:04:22.772Z,101723.09
2019-02-06T16:08:46.247Z,101718.41
2019-02-06T16:12:52.812Z,101716.64
2019-02-06T16:16:39.852Z,101715.83
2019-02-06T16:20:39.027Z,101724.02
2019-02-06T16:24:33.774Z,101721.30
2019-02-06T16:28:48.662Z,101722.19
2019-02-06T16:32:33.850Z,101719.97
2019-02-06T16:36:30.775Z,101716.94
2019-02-06T16:40:47.971Z,101717.73
2019-02-06T16:45:02.807Z,101720.21
2019-02-06T16:48:53.501Z,101714.94
2019-02-06T16:53:00.059Z,101706.61
2019-02-06T16:57:15.056Z,101713.95
2019-02-06T17:01:19.780Z,101723.08
2019-02-06T17:05:08.257Z,101705.41
2019-02-06T17:09:33.172Z,101702.83
2019-02-06T17:13:37.991Z,101696.83
2019-02-06T17:17:24.804Z,101698.92
2019-02-06T17:21:09.900Z,101712.41
2019-02-06T17:25:31.033Z,101717.07
2019-02-06T17:29:33.261Z,101717.08
2019-02-06T17:33:35.246Z,101718.86
2019-02-06T17:38:01.104Z,101703.32
2019-02-06T17:41:55.396Z,101704.67
2019-02-06T17:45:37.729Z,101708.09
2019-02-06T17:49:12.524Z,101709.78
2019-02-06T17:53:26.763Z,101698.03
2019-02-06T17:56:35.413Z,101700.55
2019-02-06T17:59:44.267Z,101689.44
2019-02-06T18:02:52.932Z,101688.25
2019-02-06T18:06:14.588Z,101688.64
2019-02-06T18:09:23.025Z,101686.05
2019-02-06T18:12:31.660Z,101680.09
2019-02-06T18:15:40.581Z,101677.52
2019-02-06T18:18:49.235Z,101679.65
2019-02-06T18:21:57.922Z,101680.80
2019-02-06T18:25:08.867Z,101672.55
2019-02-06T18:28:17.730Z,101665.66
2019-02-06T18:31:26.390Z,101669.53
2019-02-06T18:34:36.177Z,101668.19
2019-02-06T18:37:49.264Z,101675.58
2019-02-06T18:40:57.891Z,101672.56
2019-02-06T18:44:06.980Z,101667.39
2019-02-06T18:47:15.689Z,101663.87
2019-02-06T18:50:37.573Z,101665.59
2019-02-06T18:53:47.005Z,101669.62
2019-02-06T18:56:55.747Z,101677.87
2019-02-06T19:00:05.376Z,101673.51
2019-02-06T19:03:21.063Z,101672.21
2019-02-06T19:06:29.782Z,101667.94
2019-02-06T19:09:38.336Z,101664.81
2019-02-06T19:12:48.925Z,101661.88
2019-02-06T19:15:57.315Z,101663.08
2019-02-06T19:19:06.763Z,101655.08
2019-02-06T19:22:15.313Z,101649.38
2019-02-06T19:25:24.216Z,101650.27
2019-02-06T19:28:32.923Z,101644.22
2019-02-06T19:31:41.511Z,101645.41
2019-02-06T19:34:50.180Z,101640.84
2019-02-06T19:37:58.908Z,101635.62
2019-02-06T19:41:07.473Z,101637.01
2019-02-06T19:44:26.325Z,101631.30
2019-02-06T19:47:34.840Z,101631.75
2019-02-06T19:50:43.888Z,101634.78
2019-02-06T19:53:52.565Z,101636.52
2019-02-06T19:57:01.281Z,101635.58
2019-02-06T20:00:15.968Z,101634.29
2019-02-06T20:03:24.527Z,101635.33
2019-02-06T20:06:43.360Z,101619.30
2019-02-06T20:09:51.942Z,101626.55
2019-02-06T20:13:10.661Z,101621.03
2019-02-06T20:16:11.373Z,101624.40
2019-02-06T20:19:20.741Z,101627.27
2019-02-06T20:22:30.591Z,101612.63
2019-02-06T20:25:39.269Z,101607.19
2019-02-06T20:28:47.848Z,101607.97
2019-02-06T20:31:56.310Z,101603.70
2019-02-06T20:35:06.385Z,101601.67
2019-02-06T20:38:14.942Z,101609.81
2019-02-06T20:41:34.893Z,101592.97
2019-02-06T20:44:43.489Z,101595.12
2019-02-06T20:47:52.527Z,101595.90
2019-02-06T20:51:01.194Z,101597.18
2019-02-06T20:54:09.773Z,101601.90
2019-02-06T20:57:18.423Z,101593.32
2019-02-06T21:00:38.775Z,101591.52
2019-02-06T21:03:47.357Z,101585.17
2019-02-06T21:06:55.964Z,101577.38
2019-02-06T21:10:05.139Z,101576.08
2019-02-06T21:13:13.687Z,101567.10
2019-02-06T21:16:22.369Z,101564.87
2019-02-06T21:19:31.007Z,101558.86
2019-02-06T21:22:39.466Z,101541.63
2019-02-06T21:25:48.135Z,101540.77
2019-02-06T21:28:56.803Z,101532.80
2019-02-06T21:32:15.705Z,101520.66
2019-02-06T21:35:24.355Z,101541.31
2019-02-06T21:38:33.105Z,101516.85
2019-02-06T21:41:41.760Z,101524.58
2019-02-06T21:44:50.419Z,101524.34
2019-02-06T21:47:59.023Z,101527.73
2019-02-06T21:51:07.713Z,101527.23
2019-02-06T21:54:16.291Z,101519.66
2019-02-06T21:57:35.146Z,101510.84
2019-02-06T22:00:45.187Z,101508.06
2019-02-06T22:03:54.167Z,101507.73
2019-02-06T22:07:02.666Z,101494.06
2019-02-06T22:10:12.525Z,101484.09
2019-02-06T22:13:31.201Z,101483.96
2019-02-06T22:16:39.898Z,101477.98
2019-02-06T22:19:48.404Z,101480.11
2019-02-06T22:22:57.073Z,101469.51
2019-02-06T22:26:05.872Z,101472.37
2019-02-06T22:29:14.503Z,101476.81
2019-02-06T22:32:23.090Z,101468.29
2019-02-06T22:35:31.710Z,101456.23
2019-02-06T22:38:50.633Z,101458.90
2019-02-06T22:41:59.214Z,101459.04
2019-02-06T22:45:10.910Z,101458.16
2019-02-06T22:48:19.408Z,101467.17
2019-02-06T22:51:28.068Z,101473.11
2019-02-06T22:54:36.631Z,101473.05
2019-02-06T22:57:55.670Z,101468.05
2019-02-06T23:01:31.807Z,101473.70
2019-02-06T23:04:50.873Z,101473.22
2019-02-06T23:07:59.514Z,101467.41
2019-02-06T23:11:08.493Z,101463.05
2019-02-06T23:14:19.822Z,101462.44
2019-02-06T23:17:27.134Z,101455.30
2019-02-06T23:20:35.788Z,101452.38
2019-02-06T23:23:44.351Z,101447.08
2019-02-06T23:26:52.994Z,101445.41
2019-02-06T23:30:01.949Z,101435.69
2019-02-06T23:33:10.533Z,101429.76
2019-02-06T23:36:29.530Z,101418.64
2019-02-06T23:39:37.983Z,101411.05
2019-02-06T23:42:46.571Z,101407.00
2019-02-06T23:45:55.261Z,101406.03
2019-02-06T23:49:03.827Z,101398.59
2019-02-06T23:52:12.312Z,101392.67
2019-02-06T23:55:31.284Z,101378.09
2019-02-06T23:58:50.548Z,101379.00
